createdAt,value
2024-02-17T00:00:22.521Z,7.95
2024-02-17T00:02:50.057Z,8.05
2024-02-17T00:05:17.737Z,8.10
2024-02-17T00:07:45.326Z,8.18
2024-02-17T00:10:12.802Z,7.98
2024-02-17T00:12:40.127Z,7.89
2024-02-17T00:15:08.270Z,7.70
2024-02-17T00:17:36.049Z,7.49
2024-02-17T00:20:04.815Z,7.43
2024-02-17T00:22:32.324Z,7.45
2024-02-17T00:24:59.615Z,7.38
2024-02-17T00:27:27.061Z,7.24
2024-02-17T00:29:54.370Z,7.24
2024-02-17T00:32:21.713Z,7.23
2024-02-17T00:34:49.522Z,7.23
2024-02-17T00:37:17.263Z,7.10
2024-02-17T00:39:44.651Z,6.88
2024-02-17T00:42:11.979Z,6.72
2024-02-17T00:44:39.346Z,6.45
2024-02-17T00:47:07.505Z,6.29
2024-02-17T00:49:34.964Z,6.15
2024-02-17T00:52:02.444Z,6.38
2024-02-17T00:54:29.851Z,6.49
2024-02-17T00:56:57.129Z,6.56
2024-02-17T00:59:24.768Z,6.61
2024-02-17T01:01:52.036Z,6.81
2024-02-17T01:04:19.479Z,6.87
2024-02-17T01:06:46.842Z,6.71
2024-02-17T01:09:16.522Z,6.72
2024-02-17T01:11:43.908Z,6.94
2024-02-17T01:14:11.224Z,6.95
2024-02-17T01:16:38.876Z,6.70
2024-02-17T01:19:06.427Z,6.55
2024-02-17T01:21:34.945Z,6.28
2024-02-17T01:24:02.608Z,6.04
2024-02-17T01:26:29.971Z,5.77
2024-02-17T01:28:57.262Z,5.76
2024-02-17T01:31:24.673Z,5.99
2024-02-17T01:33:52.366Z,6.27
2024-02-17T01:36:20.697Z,6.10
2024-02-17T01:38:48.410Z,5.98
2024-02-17T01:41:15.872Z,5.94
2024-02-17T01:43:43.142Z,5.84
2024-02-17T01:46:35.310Z,5.82
2024-02-17T01:49:02.730Z,5.91
2024-02-17T01:51:30.623Z,6.00
2024-02-17T01:53:58.284Z,6.10
2024-02-17T01:56:27.260Z,6.35
2024-02-17T01:58:56.244Z,6.70
2024-02-17T02:01:25.220Z,6.73
2024-02-17T02:03:52.596Z,6.77
2024-02-17T02:06:25.394Z,6.81
2024-02-17T02:08:52.904Z,6.68
2024-02-17T02:11:20.865Z,6.54
2024-02-17T02:13:48.689Z,6.66
2024-02-17T02:16:19.394Z,6.52
2024-02-17T02:18:47.508Z,6.48
2024-02-17T02:21:15.089Z,6.59
2024-02-17T02:23:46.708Z,6.56
2024-02-17T02:26:14.318Z,6.54
2024-02-17T02:28:41.665Z,6.83
2024-02-17T02:31:08.998Z,6.89
2024-02-17T02:33:36.520Z,7.04
2024-02-17T02:36:04.145Z,7.01
2024-02-17T02:38:31.526Z,6.99
2024-02-17T02:40:58.901Z,7.03
2024-02-17T02:43:27.102Z,7.11
2024-02-17T02:45:54.814Z,7.15
2024-02-17T02:48:22.577Z,7.22
2024-02-17T02:50:49.931Z,7.37
2024-02-17T02:53:17.669Z,7.18
2024-02-17T02:55:45.013Z,7.00
2024-02-17T02:58:12.736Z,6.76
2024-02-17T03:00:40.183Z,6.59
2024-02-17T03:03:07.603Z,6.75
2024-02-17T03:05:37.259Z,6.79
2024-02-17T03:08:05.959Z,6.79
2024-02-17T03:10:33.736Z,6.65
2024-02-17T03:13:01.205Z,6.33
2024-02-17T03:15:28.604Z,6.10
2024-02-17T03:17:55.913Z,6.15
2024-02-17T03:20:23.319Z,5.95
2024-02-17T03:22:50.806Z,5.75
2024-02-17T03:25:18.125Z,5.97
2024-02-17T03:27:45.554Z,5.77
2024-02-17T03:30:13.062Z,5.58
2024-02-17T03:32:40.500Z,5.70
2024-02-17T03:35:08.931Z,5.74
2024-02-17T03:37:36.331Z,5.85
2024-02-17T03:40:08.068Z,5.80
2024-02-17T03:42:36.125Z,6.03
2024-02-17T03:45:03.626Z,6.17
2024-02-17T03:47:31.109Z,6.20
2024-02-17T03:49:58.494Z,6.13
2024-02-17T03:52:25.886Z,6.01
2024-02-17T03:54:54.155Z,6.04
2024-02-17T03:57:21.629Z,6.08
2024-02-17T03:59:50.094Z,5.88
2024-02-17T04:02:17.408Z,6.04
2024-02-17T04:04:44.771Z,5.89
2024-02-17T04:07:12.259Z,5.80
2024-02-17T04:09:39.846Z,5.40
2024-02-17T04:12:07.325Z,5.21
2024-02-17T04:14:35.212Z,5.32
2024-02-17T04:17:02.526Z,5.32
2024-02-17T04:19:29.927Z,5.43
2024-02-17T04:21:57.253Z,5.51
2024-02-17T04:24:24.708Z,5.34
2024-02-17T04:26:52.223Z,5.29
2024-02-17T04:29:21.111Z,5.51
2024-02-17T04:31:48.395Z,5.51
2024-02-17T04:34:15.946Z,5.44
2024-02-17T04:36:43.566Z,5.74
2024-02-17T04:39:13.526Z,5.62
2024-02-17T04:41:41.088Z,5.61
2024-02-17T04:44:09.292Z,5.79
2024-02-17T04:46:36.556Z,5.81
2024-02-17T04:49:04.027Z,5.70
2024-02-17T04:51:32.510Z,5.65
2024-02-17T04:54:00.317Z,5.40
2024-02-17T04:56:28.702Z,5.39
2024-02-17T04:58:55.980Z,5.34
2024-02-17T05:01:24.438Z,5.33
2024-02-17T05:03:52.041Z,5.41
2024-02-17T05:06:19.613Z,5.53
2024-02-17T05:08:47.106Z,5.41
2024-02-17T05:11:14.657Z,5.34
2024-02-17T05:13:42.162Z,5.08
2024-02-17T05:16:09.566Z,5.01
2024-02-17T05:18:36.999Z,5.01
2024-02-17T05:21:05.240Z,4.87
2024-02-17T05:23:34.775Z,4.95
2024-02-17T05:26:02.084Z,4.77
2024-02-17T05:28:29.963Z,4.60
2024-02-17T05:30:57.605Z,4.74
2024-02-17T05:33:25.208Z,4.70
2024-02-17T05:35:52.957Z,4.81
2024-02-17T05:38:20.454Z,4.84
2024-02-17T05:40:47.796Z,4.86
2024-02-17T05:43:15.025Z,4.80
2024-02-17T05:45:42.333Z,5.01
2024-02-17T05:48:09.766Z,5.06
2024-02-17T05:50:38.078Z,4.95
2024-02-17T05:53:05.378Z,4.86
2024-02-17T05:55:32.677Z,4.57
2024-02-17T05:58:00.405Z,4.43
2024-02-17T06:00:27.726Z,4.42
2024-02-17T06:02:55.121Z,4.68
2024-02-17T06:05:22.436Z,4.62
2024-02-17T06:07:50.261Z,4.53
2024-02-17T06:10:17.633Z,4.48
2024-02-17T06:12:44.963Z,4.24
2024-02-17T06:15:12.351Z,4.16
2024-02-17T06:17:44.175Z,4.33
2024-02-17T06:20:30.938Z,4.52
2024-02-17T06:22:58.828Z,4.81
2024-02-17T06:25:26.183Z,4.89
2024-02-17T06:27:53.618Z,4.87
2024-02-17T06:30:21.042Z,4.94
2024-02-17T06:32:48.426Z,5.02
2024-02-17T06:35:15.939Z,5.01
2024-02-17T06:37:43.247Z,5.10
2024-02-17T06:40:10.931Z,5.03
2024-02-17T06:42:38.268Z,5.04
2024-02-17T06:45:05.874Z,5.18
2024-02-17T06:47:33.108Z,5.14
2024-02-17T06:50:00.577Z,5.17
2024-02-17T06:52:28.072Z,5.29
2024-02-17T06:54:55.391Z,5.35
2024-02-17T06:57:22.717Z,5.48
2024-02-17T06:59:49.973Z,5.54
2024-02-17T07:02:17.609Z,5.63
2024-02-17T07:04:44.970Z,5.50
2024-02-17T07:07:12.288Z,5.32
2024-02-17T07:09:40.653Z,5.02
2024-02-17T07:12:08.253Z,5.24
2024-02-17T07:14:36.119Z,5.42
2024-02-17T07:17:04.952Z,5.61
2024-02-17T07:19:32.683Z,5.74
2024-02-17T07:22:00.236Z,5.83
2024-02-17T07:24:28.872Z,5.88
2024-02-17T07:26:56.189Z,5.91
2024-02-17T07:29:23.408Z,5.98
2024-02-17T07:31:50.713Z,6.17
2024-02-17T07:34:18.090Z,6.17
2024-02-17T07:36:47.954Z,6.31
2024-02-17T07:39:15.457Z,6.36
2024-02-17T07:41:42.725Z,6.50
2024-02-17T07:44:10.662Z,6.53
2024-02-17T07:46:37.981Z,6.67
2024-02-17T07:49:05.439Z,6.85
2024-02-17T07:51:33.225Z,6.88
2024-02-17T07:54:01.905Z,6.91
2024-02-17T07:56:29.617Z,7.10
2024-02-17T07:58:57.538Z,7.19
2024-02-17T08:01:24.969Z,7.19
2024-02-17T08:03:52.473Z,7.29
2024-02-17T08:06:21.017Z,7.37
2024-02-17T08:08:50.091Z,7.55
2024-02-17T08:11:17.811Z,7.51
2024-02-17T08:13:45.149Z,7.48
2024-02-17T08:16:12.668Z,7.55
2024-02-17T08:18:43.442Z,7.73
2024-02-17T08:21:11.551Z,7.61
2024-02-17T08:23:38.877Z,7.77
2024-02-17T08:26:08.684Z,7.96
2024-02-17T08:28:36.286Z,8.09
2024-02-17T08:31:04.054Z,8.14
2024-02-17T08:33:31.474Z,8.12
2024-02-17T08:35:58.845Z,8.18
2024-02-17T08:38:26.333Z,8.29
2024-02-17T08:40:53.656Z,8.45
2024-02-17T08:43:20.937Z,8.61
2024-02-17T08:45:48.277Z,8.70
2024-02-17T08:48:16.271Z,8.42
2024-02-17T08:50:43.711Z,8.73
2024-02-17T08:53:11.035Z,8.84
2024-02-17T08:55:38.519Z,8.94
2024-02-17T08:58:06.873Z,8.89
2024-02-17T09:00:37.330Z,8.40
2024-02-17T09:03:04.627Z,8.86
2024-02-17T09:05:31.961Z,8.82
2024-02-17T09:07:59.383Z,8.71
2024-02-17T09:10:27.663Z,8.62
2024-02-17T09:12:55.053Z,8.80
2024-02-17T09:15:22.381Z,8.86
2024-02-17T09:17:50.120Z,9.15
2024-02-17T09:20:18.137Z,9.41
2024-02-17T09:22:45.482Z,9.44
2024-02-17T09:25:12.887Z,9.17
2024-02-17T09:27:40.428Z,9.37
2024-02-17T09:30:09.098Z,9.50
2024-02-17T09:32:36.685Z,9.60
2024-02-17T09:35:04.689Z,9.59
2024-02-17T09:37:32.239Z,9.69
2024-02-17T09:40:01.055Z,9.50
2024-02-17T09:42:29.378Z,9.47
2024-02-17T09:44:56.854Z,9.76
2024-02-17T09:47:25.522Z,9.92
2024-02-17T09:49:54.253Z,10.18
2024-02-17T09:52:22.542Z,10.21
2024-02-17T09:54:49.981Z,10.50
2024-02-17T09:57:19.183Z,10.71
2024-02-17T09:59:46.851Z,10.96
2024-02-17T10:02:14.155Z,11.11
2024-02-17T10:05:08.352Z,11.18
2024-02-17T10:07:48.106Z,11.04
2024-02-17T10:10:18.011Z,11.30
2024-02-17T10:12:54.932Z,11.46
2024-02-17T10:15:23.712Z,11.32
2024-02-17T10:17:54.414Z,11.27
2024-02-17T10:20:22.100Z,11.26
2024-02-17T10:22:49.876Z,11.34
2024-02-17T10:25:18.818Z,11.69
2024-02-17T10:27:47.940Z,11.86
2024-02-17T10:30:21.779Z,11.85
2024-02-17T10:32:49.644Z,11.78
2024-02-17T10:35:18.027Z,11.86
2024-02-17T10:37:49.559Z,11.90
2024-02-17T10:40:17.612Z,11.73
2024-02-17T10:42:47.367Z,12.15
2024-02-17T10:45:14.962Z,12.58
2024-02-17T10:47:46.156Z,13.02
2024-02-17T10:50:17.781Z,12.42
2024-02-17T10:52:50.379Z,12.28
2024-02-17T10:55:24.065Z,12.44
2024-02-17T10:57:58.089Z,12.57
2024-02-17T11:00:26.473Z,12.58
2024-02-17T11:03:06.219Z,12.65
2024-02-17T11:05:38.028Z,12.92
2024-02-17T11:08:06.440Z,12.91
2024-02-17T11:10:34.104Z,13.45
2024-02-17T11:13:02.732Z,13.98
2024-02-17T11:15:32.871Z,14.33
2024-02-17T11:18:02.889Z,13.93
2024-02-17T11:20:30.559Z,14.38
2024-02-17T11:23:01.202Z,13.97
2024-02-17T11:25:39.994Z,13.74
2024-02-17T11:28:22.299Z,14.19
2024-02-17T11:30:51.820Z,14.41
2024-02-17T11:33:33.175Z,14.11
2024-02-17T11:36:04.909Z,14.50
2024-02-17T11:38:32.903Z,14.85
2024-02-17T11:41:01.795Z,14.67
2024-02-17T11:43:31.257Z,14.84
2024-02-17T11:45:59.411Z,15.25
2024-02-17T11:48:29.604Z,15.36
2024-02-17T11:51:10.430Z,14.70
2024-02-17T11:53:41.907Z,15.15
2024-02-17T11:56:09.592Z,15.15
2024-02-17T11:58:37.749Z,13.97
2024-02-17T12:01:05.274Z,14.03
2024-02-17T12:03:33.130Z,14.31
2024-02-17T12:06:04.220Z,14.50
2024-02-17T12:08:32.291Z,15.06
2024-02-17T12:10:59.897Z,15.05
2024-02-17T12:13:28.146Z,15.12
2024-02-17T12:16:05.261Z,14.83
2024-02-17T12:18:33.920Z,14.98
2024-02-17T12:21:02.480Z,15.27
2024-02-17T12:23:30.911Z,15.34
2024-02-17T12:25:58.859Z,15.24
2024-02-17T12:28:26.700Z,15.71
2024-02-17T12:30:54.741Z,15.89
2024-02-17T12:33:22.781Z,16.15
2024-02-17T12:35:51.656Z,16.49
2024-02-17T12:38:21.406Z,16.36
2024-02-17T12:40:49.561Z,16.08
2024-02-17T12:43:29.500Z,15.87
2024-02-17T12:46:01.842Z,16.03
2024-02-17T12:48:29.380Z,16.28
2024-02-17T12:50:57.677Z,16.71
2024-02-17T12:53:26.309Z,16.14
2024-02-17T12:55:54.899Z,16.91
2024-02-17T12:58:23.151Z,16.22
2024-02-17T13:00:50.694Z,15.99
2024-02-17T13:03:19.311Z,16.25
2024-02-17T13:05:47.066Z,16.34
2024-02-17T13:08:15.771Z,16.60
2024-02-17T13:10:43.986Z,16.43
2024-02-17T13:13:12.196Z,16.79
2024-02-17T13:15:39.683Z,16.59
2024-02-17T13:18:08.440Z,16.44
2024-02-17T13:20:35.984Z,16.77
2024-02-17T13:23:03.662Z,17.32
2024-02-17T13:25:30.984Z,16.84
2024-02-17T13:27:58.675Z,17.31
2024-02-17T13:30:26.198Z,17.74
2024-02-17T13:32:53.685Z,17.77
2024-02-17T13:35:21.515Z,17.90
2024-02-17T13:37:49.937Z,18.01
2024-02-17T13:40:20.812Z,18.39
2024-02-17T13:42:48.305Z,18.38
2024-02-17T13:45:15.832Z,18.49
2024-02-17T13:47:43.301Z,20.72
2024-02-17T13:50:13.793Z,23.64
2024-02-17T13:52:41.634Z,26.56
2024-02-17T13:55:11.248Z,25.89
2024-02-17T13:57:38.705Z,27.31
2024-02-17T14:00:06.574Z,28.00
2024-02-17T14:02:34.071Z,26.63
2024-02-17T14:05:03.989Z,28.36
2024-02-17T14:07:31.898Z,28.62
2024-02-17T14:09:59.442Z,29.00
2024-02-17T14:12:26.898Z,30.09
2024-02-17T14:14:54.228Z,30.59
2024-02-17T14:17:24.951Z,30.84
2024-02-17T14:19:52.383Z,31.13
2024-02-17T14:22:20.046Z,26.61
2024-02-17T14:24:47.497Z,25.18
2024-02-17T14:27:15.081Z,26.46
2024-02-17T14:29:47.164Z,26.16
2024-02-17T14:32:14.681Z,27.32
2024-02-17T14:34:42.578Z,25.88
2024-02-17T14:37:10.021Z,22.07
2024-02-17T14:39:38.885Z,21.59
2024-02-17T14:42:06.725Z,19.49
2024-02-17T14:44:34.116Z,19.35
2024-02-17T14:47:02.042Z,18.99
2024-02-17T14:49:29.513Z,18.87
2024-02-17T14:51:57.168Z,18.69
2024-02-17T14:54:25.017Z,18.69
2024-02-17T14:56:52.530Z,18.48
2024-02-17T14:59:19.876Z,18.30
2024-02-17T15:01:47.238Z,17.99
2024-02-17T15:04:16.312Z,17.60
2024-02-17T15:06:43.921Z,17.74
2024-02-17T15:09:11.568Z,17.53
2024-02-17T15:11:39.526Z,17.36
2024-02-17T15:14:06.923Z,17.75
2024-02-17T15:16:34.276Z,17.43
2024-02-17T15:19:01.977Z,17.45
2024-02-17T15:21:29.530Z,17.45
2024-02-17T15:23:57.055Z,17.26
2024-02-17T15:26:25.001Z,17.11
2024-02-17T15:28:52.532Z,17.42
2024-02-17T15:31:19.925Z,17.25
2024-02-17T15:33:47.628Z,17.30
2024-02-17T15:36:17.758Z,17.01
2024-02-17T15:38:46.196Z,17.02
2024-02-17T15:41:13.601Z,16.99
2024-02-17T15:43:40.918Z,16.67
2024-02-17T15:46:13.611Z,16.62
2024-02-17T15:48:41.087Z,16.70
2024-02-17T15:51:11.318Z,16.92
2024-02-17T15:53:38.952Z,16.70
2024-02-17T15:56:14.182Z,16.59
2024-02-17T15:58:41.902Z,16.42
2024-02-17T16:01:09.537Z,16.40
2024-02-17T16:03:38.079Z,16.27
2024-02-17T16:06:09.143Z,16.27
2024-02-17T16:08:38.190Z,16.36
2024-02-17T16:11:11.492Z,16.79
2024-02-17T16:13:45.694Z,16.31
2024-02-17T16:16:16.339Z,16.01
2024-02-17T16:18:46.832Z,15.90
2024-02-17T16:21:16.175Z,15.68
2024-02-17T16:23:43.687Z,15.37
2024-02-17T16:26:11.701Z,15.23
2024-02-17T16:28:39.214Z,15.04
2024-02-17T16:31:08.047Z,15.00
2024-02-17T16:33:39.054Z,14.85
2024-02-17T16:36:08.341Z,14.62
2024-02-17T16:38:36.066Z,14.54
2024-02-17T16:41:03.746Z,14.38
2024-02-17T16:43:32.628Z,14.27
2024-02-17T16:46:01.514Z,14.16
2024-02-17T16:48:30.688Z,14.02
2024-02-17T16:50:58.319Z,13.86
2024-02-17T16:53:25.734Z,13.75
2024-02-17T16:55:53.053Z,13.69
2024-02-17T16:58:20.378Z,13.65
2024-02-17T17:00:48.639Z,13.56
2024-02-17T17:03:17.542Z,13.42
2024-02-17T17:05:45.467Z,13.32
2024-02-17T17:08:12.975Z,13.21
2024-02-17T17:10:40.384Z,13.19
2024-02-17T17:13:08.763Z,13.05
2024-02-17T17:15:38.459Z,12.89
2024-02-17T17:18:06.905Z,12.77
2024-02-17T17:20:34.437Z,12.75
2024-02-17T17:23:01.908Z,12.73
2024-02-17T17:25:29.495Z,12.64
2024-02-17T17:27:57.381Z,12.56
2024-02-17T17:30:26.764Z,12.49
2024-02-17T17:32:54.565Z,12.34
2024-02-17T17:35:23.313Z,12.28
2024-02-17T17:37:50.748Z,12.22
2024-02-17T17:40:18.554Z,12.17
2024-02-17T17:42:55.813Z,12.06
2024-02-17T17:45:27.227Z,11.98
2024-02-17T17:47:55.112Z,11.93
2024-02-17T17:50:23.490Z,11.71
2024-02-17T17:52:52.748Z,11.70
2024-02-17T17:55:20.921Z,11.53
2024-02-17T17:57:48.472Z,11.32
2024-02-17T18:00:19.937Z,11.21
2024-02-17T18:02:48.369Z,11.17
2024-02-17T18:05:16.323Z,10.99
2024-02-17T18:07:44.062Z,10.89
2024-02-17T18:10:11.708Z,10.67
2024-02-17T18:12:39.283Z,10.82
2024-02-17T18:15:08.143Z,10.90
2024-02-17T18:17:37.000Z,10.98
2024-02-17T18:20:06.303Z,10.97
2024-02-17T18:22:34.141Z,10.96
2024-02-17T18:25:02.063Z,10.72
2024-02-17T18:27:29.900Z,10.89
2024-02-17T18:29:57.315Z,10.98
2024-02-17T18:32:24.905Z,10.97
2024-02-17T18:34:52.340Z,10.95
2024-02-17T18:37:20.010Z,10.92
2024-02-17T18:39:47.458Z,10.89
2024-02-17T18:42:15.029Z,10.90
2024-02-17T18:44:42.406Z,10.83
2024-02-17T18:47:09.809Z,10.77
2024-02-17T18:49:37.600Z,10.79
2024-02-17T18:52:06.346Z,10.82
2024-02-17T18:54:33.926Z,10.81
2024-02-17T18:57:01.657Z,10.80
2024-02-17T18:59:28.932Z,10.79
2024-02-17T19:01:56.379Z,10.81
2024-02-17T19:04:23.902Z,10.71
2024-02-17T19:06:51.510Z,10.67
2024-02-17T19:09:18.819Z,10.65
2024-02-17T19:11:46.383Z,10.50
2024-02-17T19:14:15.981Z,10.39
2024-02-17T19:16:43.258Z,10.12
2024-02-17T19:19:10.762Z,9.96
2024-02-17T19:21:38.474Z,9.78
2024-02-17T19:24:07.096Z,9.58
2024-02-17T19:26:35.787Z,9.54
2024-02-17T19:29:03.377Z,9.40
2024-02-17T19:31:30.665Z,9.46
2024-02-17T19:33:58.403Z,9.50
2024-02-17T19:36:25.820Z,9.65
2024-02-17T19:38:53.193Z,9.87
2024-02-17T19:41:20.614Z,9.94
2024-02-17T19:43:49.782Z,10.02
2024-02-17T19:46:17.513Z,9.97
2024-02-17T19:48:44.982Z,9.90
2024-02-17T19:51:12.764Z,9.93
2024-02-17T19:53:40.791Z,10.01
2024-02-17T19:56:08.415Z,10.04
2024-02-17T19:58:35.710Z,10.01
2024-02-17T20:01:03.170Z,10.07
2024-02-17T20:03:31.347Z,10.11
2024-02-17T20:05:59.152Z,10.08
2024-02-17T20:08:26.601Z,9.98
2024-02-17T20:10:54.157Z,10.01
2024-02-17T20:13:22.550Z,10.05
2024-02-17T20:15:52.229Z,10.04
2024-02-17T20:18:22.505Z,9.65
2024-02-17T20:20:51.356Z,9.22
2024-02-17T20:23:18.872Z,9.10
2024-02-17T20:25:46.215Z,9.20
2024-02-17T20:28:13.668Z,9.35
2024-02-17T20:30:41.377Z,9.52
2024-02-17T20:33:11.921Z,9.47
2024-02-17T20:35:39.391Z,9.49
2024-02-17T20:38:06.744Z,9.47
2024-02-17T20:40:34.064Z,9.40
2024-02-17T20:43:02.816Z,9.07
2024-02-17T20:45:30.655Z,8.93
2024-02-17T20:47:58.266Z,8.94
2024-02-17T20:50:26.257Z,8.87
2024-02-17T20:52:53.596Z,8.72
2024-02-17T20:55:22.470Z,8.58
2024-02-17T20:57:50.809Z,8.64
2024-02-17T21:00:18.608Z,8.78
2024-02-17T21:02:45.972Z,8.89
2024-02-17T21:05:13.502Z,8.89
2024-02-17T21:07:40.972Z,8.97
2024-02-17T21:10:08.752Z,9.06
2024-02-17T21:12:36.284Z,9.05
2024-02-17T21:15:05.329Z,9.14
2024-02-17T21:17:34.349Z,9.07
2024-02-17T21:20:02.017Z,8.89
2024-02-17T21:22:29.677Z,8.87
2024-02-17T21:24:57.065Z,8.90
2024-02-17T21:27:24.425Z,9.02
2024-02-17T21:29:51.793Z,9.12
2024-02-17T21:32:19.451Z,9.13
2024-02-17T21:34:48.742Z,9.12
2024-02-17T21:37:16.318Z,9.18
2024-02-17T21:39:44.613Z,9.05
2024-02-17T21:42:13.116Z,8.85
2024-02-17T21:44:40.883Z,8.35
2024-02-17T21:47:08.196Z,8.26
2024-02-17T21:49:35.638Z,7.95
2024-02-17T21:52:04.200Z,7.71
2024-02-17T21:54:31.824Z,7.42
2024-02-17T21:56:59.507Z,7.37
2024-02-17T21:59:26.989Z,7.27
2024-02-17T22:02:01.439Z,7.39
2024-02-17T22:04:32.952Z,7.41
2024-02-17T22:07:00.955Z,7.66
2024-02-17T22:09:29.231Z,7.84
2024-02-17T22:11:56.748Z,7.81
2024-02-17T22:14:24.120Z,7.60
2024-02-17T22:16:51.577Z,7.37
2024-02-17T22:19:19.114Z,7.34
2024-02-17T22:21:46.675Z,7.36
2024-02-17T22:24:14.139Z,7.54
2024-02-17T22:26:41.563Z,7.68
2024-02-17T22:29:10.233Z,7.82
2024-02-17T22:31:37.772Z,7.89
2024-02-17T22:34:06.412Z,7.73
2024-02-17T22:36:34.434Z,7.62
2024-02-17T22:39:02.189Z,7.56
2024-02-17T22:41:29.696Z,7.64
2024-02-17T22:44:00.137Z,7.44
2024-02-17T22:46:27.645Z,7.51
2024-02-17T22:48:55.145Z,7.61
2024-02-17T22:51:23.716Z,7.64
2024-02-17T22:53:51.171Z,7.62
2024-02-17T22:56:18.636Z,7.36
2024-02-17T22:58:46.092Z,7.19
2024-02-17T23:01:14.385Z,7.20
2024-02-17T23:03:42.179Z,7.19
2024-02-17T23:06:10.708Z,7.15
2024-02-17T23:08:38.313Z,7.12
2024-02-17T23:11:05.777Z,7.46
2024-02-17T23:13:33.442Z,7.51
2024-02-17T23:16:00.897Z,7.63
2024-02-17T23:18:28.922Z,7.78
2024-02-17T23:20:56.444Z,7.62
2024-02-17T23:23:25.953Z,7.50
2024-02-17T23:25:53.273Z,7.29
2024-02-17T23:28:20.604Z,6.94
2024-02-17T23:30:48.121Z,6.51
2024-02-17T23:33:15.545Z,5.98
2024-02-17T23:35:43.266Z,5.77
2024-02-17T23:38:10.717Z,6.19
2024-02-17T23:40:38.155Z,6.56
2024-02-17T23:43:05.519Z,6.63
2024-02-17T23:45:35.122Z,6.65
2024-02-17T23:48:03.657Z,6.88
2024-02-17T23:50:32.563Z,6.96
2024-02-17T23:52:59.998Z,6.63
2024-02-17T23:55:27.413Z,6.60
2024-02-17T23:57:54.931Z,6.53
